sensor_id;sensor_type;location;lat;lon;timestamp;pressure;altitude;pressure_sealevel;temperature;humidity
71735;BME280;59577;52.122;5.406;2023-07-02T00:02:15;100736.44;;;16.38;86.75
71735;BME280;59577;52.122;5.406;2023-07-02T00:04:42;100727.88;;;16.32;88.06
71735;BME280;59577;52.122;5.406;2023-07-02T00:07:09;100721.66;;;16.28;88.34
71735;BME280;59577;52.122;5.406;2023-07-02T00:09:37;100706.03;;;16.25;88.61
71735;BME280;59577;52.122;5.406;2023-07-02T00:12:04;100725.56;;;16.20;88.58
71735;BME280;59577;52.122;5.406;2023-07-02T00:14:30;100734.94;;;16.12;88.47
71735;BME280;59577;52.122;5.406;2023-07-02T00:16:57;100731.81;;;16.06;88.79
71735;BME280;59577;52.122;5.406;2023-07-02T00:19:24;100734.56;;;16.03;89.30
71735;BME280;59577;52.122;5.406;2023-07-02T00:21:51;100733.75;;;15.98;89.49
71735;BME280;59577;52.122;5.406;2023-07-02T00:24:20;100754.06;;;16.01;89.85
71735;BME280;59577;52.122;5.406;2023-07-02T00:26:46;100750.56;;;16.01;89.79
71735;BME280;59577;52.122;5.406;2023-07-02T00:29:13;100756.41;;;16.03;90.00
71735;BME280;59577;52.122;5.406;2023-07-02T00:31:40;100759.53;;;16.01;90.33
71735;BME280;59577;52.122;5.406;2023-07-02T00:34:06;100743.91;;;15.98;90.71
71735;BME280;59577;52.122;5.406;2023-07-02T00:36:33;100748.59;;;15.97;90.82
71735;BME280;59577;52.122;5.406;2023-07-02T00:39:00;100758.75;;;16.01;90.56
71735;BME280;59577;52.122;5.406;2023-07-02T00:41:26;100755.22;;;16.00;90.41
71735;BME280;59577;52.122;5.406;2023-07-02T00:43:53;100763.03;;;15.98;90.54
71735;BME280;59577;52.122;5.406;2023-07-02T00:46:23;100757.56;;;15.94;90.26
71735;BME280;59577;52.122;5.406;2023-07-02T00:48:53;100761.88;;;15.92;90.31
71735;BME280;59577;52.122;5.406;2023-07-02T00:51:25;100759.53;;;15.90;90.44
71735;BME280;59577;52.122;5.406;2023-07-02T00:53:55;100763.41;;;15.89;89.86
71735;BME280;59577;52.122;5.406;2023-07-02T00:56:23;100764.97;;;15.83;90.30
71735;BME280;59577;52.122;5.406;2023-07-02T00:58:52;100757.56;;;15.84;90.35
71735;BME280;59577;52.122;5.406;2023-07-02T01:01:24;100760.69;;;15.82;90.42
71735;BME280;59577;52.122;5.406;2023-07-02T01:04:02;100762.66;;;15.78;90.26
71735;BME280;59577;52.122;5.406;2023-07-02T01:06:31;100768.88;;;15.78;90.57
71735;BME280;59577;52.122;5.406;2023-07-02T01:09:00;100772.00;;;15.77;90.40
71735;BME280;59577;52.122;5.406;2023-07-02T01:11:30;100767.66;;;15.69;90.22
71735;BME280;59577;52.122;5.406;2023-07-02T01:14:06;100765.31;;;15.64;90.45
71735;BME280;59577;52.122;5.406;2023-07-02T01:16:35;100770.38;;;15.61;90.60
71735;BME280;59577;52.122;5.406;2023-07-02T01:19:05;100773.88;;;15.58;90.70
71735;BME280;59577;52.122;5.406;2023-07-02T01:21:36;100771.53;;;15.57;90.68
71735;BME280;59577;52.122;5.406;2023-07-02T01:24:03;100775.84;;;15.54;90.41
71735;BME280;59577;52.122;5.406;2023-07-02T01:26:31;100778.16;;;15.52;90.25
71735;BME280;59577;52.122;5.406;2023-07-02T01:29:20;100770.75;;;15.49;90.18
71735;BME280;59577;52.122;5.406;2023-07-02T01:31:47;100774.63;;;15.45;89.89
71735;BME280;59577;52.122;5.406;2023-07-02T01:34:14;100773.09;;;15.40;89.48
71735;BME280;59577;52.122;5.406;2023-07-02T01:36:41;100773.47;;;15.35;89.11
71735;BME280;59577;52.122;5.406;2023-07-02T01:39:08;100775.00;;;15.29;89.33
71735;BME280;59577;52.122;5.406;2023-07-02T01:41:44;100772.63;;;15.23;89.56
71735;BME280;59577;52.122;5.406;2023-07-02T01:44:11;100773.38;;;15.17;89.08
71735;BME280;59577;52.122;5.406;2023-07-02T01:46:38;100771.41;;;15.07;88.94
71735;BME280;59577;52.122;5.406;2023-07-02T01:49:04;100783.84;;;15.00;88.85
71735;BME280;59577;52.122;5.406;2023-07-02T01:51:31;100774.88;;;14.96;88.61
71735;BME280;59577;52.122;5.406;2023-07-02T01:53:58;100779.91;;;14.91;88.48
71735;BME280;59577;52.122;5.406;2023-07-02T01:56:24;100786.50;;;14.86;88.82
71735;BME280;59577;52.122;5.406;2023-07-02T01:58:51;100778.28;;;14.79;88.67
71735;BME280;59577;52.122;5.406;2023-07-02T02:01:17;100776.31;;;14.72;88.51
71735;BME280;59577;52.122;5.406;2023-07-02T02:03:44;100780.22;;;14.71;88.67
71735;BME280;59577;52.122;5.406;2023-07-02T02:06:11;100783.28;;;14.66;88.70
71735;BME280;59577;52.122;5.406;2023-07-02T02:08:37;100781.69;;;14.61;88.41
71735;BME280;59577;52.122;5.406;2023-07-02T02:11:04;100785.50;;;14.53;88.20
71735;BME280;59577;52.122;5.406;2023-07-02T02:13:31;100788.19;;;14.46;88.51
71735;BME280;59577;52.122;5.406;2023-07-02T02:15:57;100786.63;;;14.41;88.43
71735;BME280;59577;52.122;5.406;2023-07-02T02:18:24;100790.88;;;14.39;88.56
71735;BME280;59577;52.122;5.406;2023-07-02T02:20:51;100790.84;;;14.35;88.92
71735;BME280;59577;52.122;5.406;2023-07-02T02:23:17;100785.78;;;14.34;88.83
71735;BME280;59577;52.122;5.406;2023-07-02T02:25:44;100787.72;;;14.29;88.66
71735;BME280;59577;52.122;5.406;2023-07-02T02:28:11;100792.34;;;14.29;88.34
71735;BME280;59577;52.122;5.406;2023-07-02T02:30:37;100793.53;;;14.28;88.92
71735;BME280;59577;52.122;5.406;2023-07-02T02:33:04;100789.22;;;14.27;88.61
71735;BME280;59577;52.122;5.406;2023-07-02T02:35:30;100789.22;;;14.27;88.81
71735;BME280;59577;52.122;5.406;2023-07-02T02:37:57;100797.00;;;14.25;88.30
71735;BME280;59577;52.122;5.406;2023-07-02T02:40:24;100803.19;;;14.22;88.18
71735;BME280;59577;52.122;5.406;2023-07-02T02:42:50;100801.22;;;14.19;88.01
71735;BME280;59577;52.122;5.406;2023-07-02T02:45:17;100804.72;;;14.16;87.33
71735;BME280;59577;52.122;5.406;2023-07-02T02:47:45;100801.13;;;14.08;87.47
71735;BME280;59577;52.122;5.406;2023-07-02T02:50:13;100812.38;;;14.03;87.07
71735;BME280;59577;52.122;5.406;2023-07-02T02:52:39;100812.31;;;13.96;87.41
71735;BME280;59577;52.122;5.406;2023-07-02T02:55:07;100806.88;;;13.96;87.57
71735;BME280;59577;52.122;5.406;2023-07-02T02:57:34;100810.28;;;13.89;88.14
71735;BME280;59577;52.122;5.406;2023-07-02T03:00:00;100808.72;;;13.84;87.54
71735;BME280;59577;52.122;5.406;2023-07-02T03:02:27;100810.56;;;13.77;87.75
71735;BME280;59577;52.122;5.406;2023-07-02T03:04:54;100814.88;;;13.78;87.54
71735;BME280;59577;52.122;5.406;2023-07-02T03:07:22;100815.28;;;13.80;87.94
71735;BME280;59577;52.122;5.406;2023-07-02T03:09:49;100816.41;;;13.79;87.98
71735;BME280;59577;52.122;5.406;2023-07-02T03:12:15;100816.84;;;13.81;88.06
71735;BME280;59577;52.122;5.406;2023-07-02T03:14:42;100817.63;;;13.81;88.23
71735;BME280;59577;52.122;5.406;2023-07-02T03:17:08;100825.75;;;13.78;88.15
71735;BME280;59577;52.122;5.406;2023-07-02T03:19:35;100826.88;;;13.73;88.27
71735;BME280;59577;52.122;5.406;2023-07-02T03:22:02;100832.31;;;13.73;87.98
71735;BME280;59577;52.122;5.406;2023-07-02T03:24:28;100827.66;;;13.77;88.06
71735;BME280;59577;52.122;5.406;2023-07-02T03:26:54;100830.28;;;13.66;87.92
71735;BME280;59577;52.122;5.406;2023-07-02T03:29:21;100832.63;;;13.68;87.87
71735;BME280;59577;52.122;5.406;2023-07-02T03:31:48;100831.91;;;13.71;88.20
71735;BME280;59577;52.122;5.406;2023-07-02T03:34:14;100834.25;;;13.72;88.19
71735;BME280;59577;52.122;5.406;2023-07-02T03:36:41;100833.00;;;13.66;87.69
71735;BME280;59577;52.122;5.406;2023-07-02T03:39:08;100833.75;;;13.63;87.58
71735;BME280;59577;52.122;5.406;2023-07-02T03:41:36;100836.44;;;13.60;87.23
71735;BME280;59577;52.122;5.406;2023-07-02T03:44:03;100832.56;;;13.61;87.51
71735;BME280;59577;52.122;5.406;2023-07-02T03:46:29;100839.91;;;13.57;87.29
71735;BME280;59577;52.122;5.406;2023-07-02T03:48:57;100841.09;;;13.59;87.09
71735;BME280;59577;52.122;5.406;2023-07-02T03:51:24;100836.34;;;13.52;87.89
71735;BME280;59577;52.122;5.406;2023-07-02T03:53:51;100837.94;;;13.53;88.38
71735;BME280;59577;52.122;5.406;2023-07-02T03:56:17;100850.78;;;13.57;88.00
71735;BME280;59577;52.122;5.406;2023-07-02T03:58:45;100856.31;;;13.64;88.02
71735;BME280;59577;52.122;5.406;2023-07-02T04:01:12;100839.19;;;13.63;87.92
71735;BME280;59577;52.122;5.406;2023-07-02T04:03:50;100845.81;;;13.62;88.01
71735;BME280;59577;52.122;5.406;2023-07-02T04:06:17;100854.38;;;13.64;88.04
71735;BME280;59577;52.122;5.406;2023-07-02T04:08:44;100854.72;;;13.63;87.93
71735;BME280;59577;52.122;5.406;2023-07-02T04:11:11;100864.84;;;13.62;87.54
71735;BME280;59577;52.122;5.406;2023-07-02T04:13:39;100864.88;;;13.66;87.31
71735;BME280;59577;52.122;5.406;2023-07-02T04:16:05;100857.09;;;13.64;87.17
71735;BME280;59577;52.122;5.406;2023-07-02T04:18:32;100855.53;;;13.67;87.05
71735;BME280;59577;52.122;5.406;2023-07-02T04:21:01;100864.56;;;13.75;86.73
71735;BME280;59577;52.122;5.406;2023-07-02T04:23:28;100871.69;;;13.86;86.52
71735;BME280;59577;52.122;5.406;2023-07-02T04:25:55;100872.94;;;13.96;86.24
71735;BME280;59577;52.122;5.406;2023-07-02T04:28:42;100882.38;;;14.06;85.70
71735;BME280;59577;52.122;5.406;2023-07-02T04:31:08;100876.97;;;14.09;85.43
71735;BME280;59577;52.122;5.406;2023-07-02T04:33:35;100878.56;;;14.10;85.40
71735;BME280;59577;52.122;5.406;2023-07-02T04:36:03;100876.56;;;14.07;85.28
71735;BME280;59577;52.122;5.406;2023-07-02T04:38:30;100882.78;;;14.08;85.42
71735;BME280;59577;52.122;5.406;2023-07-02T04:40:56;100891.84;;;14.19;85.49
71735;BME280;59577;52.122;5.406;2023-07-02T04:43:31;100885.69;;;14.26;85.13
71735;BME280;59577;52.122;5.406;2023-07-02T04:45:59;100879.81;;;14.24;84.96
71735;BME280;59577;52.122;5.406;2023-07-02T04:48:26;100884.47;;;14.20;85.37
71735;BME280;59577;52.122;5.406;2023-07-02T04:50:53;100882.97;;;14.26;85.53
71735;BME280;59577;52.122;5.406;2023-07-02T04:53:19;100879.91;;;14.31;85.52
71735;BME280;59577;52.122;5.406;2023-07-02T04:55:46;100889.63;;;14.32;85.27
71735;BME280;59577;52.122;5.406;2023-07-02T04:58:13;100887.75;;;14.40;85.56
71735;BME280;59577;52.122;5.406;2023-07-02T05:00:39;100888.97;;;14.49;85.52
71735;BME280;59577;52.122;5.406;2023-07-02T05:03:06;100886.72;;;14.55;85.03
71735;BME280;59577;52.122;5.406;2023-07-02T05:05:33;100896.53;;;14.67;84.48
71735;BME280;59577;52.122;5.406;2023-07-02T05:07:59;100891.91;;;14.71;83.97
71735;BME280;59577;52.122;5.406;2023-07-02T05:10:26;100892.75;;;14.82;83.59
71735;BME280;59577;52.122;5.406;2023-07-02T05:12:52;100897.47;;;14.89;82.70
71735;BME280;59577;52.122;5.406;2023-07-02T05:15:19;100901.03;;;14.97;82.64
71735;BME280;59577;52.122;5.406;2023-07-02T05:17:45;100900.34;;;15.07;82.79
71735;BME280;59577;52.122;5.406;2023-07-02T05:20:12;100900.38;;;15.18;82.30
71735;BME280;59577;52.122;5.406;2023-07-02T05:22:39;100902.03;;;15.33;81.78
71735;BME280;59577;52.122;5.406;2023-07-02T05:25:06;100908.31;;;15.55;81.19
71735;BME280;59577;52.122;5.406;2023-07-02T05:27:33;100904.09;;;15.72;81.07
71735;BME280;59577;52.122;5.406;2023-07-02T05:29:59;100901.41;;;15.79;80.40
71735;BME280;59577;52.122;5.406;2023-07-02T05:32:26;100903.09;;;16.16;79.79
71735;BME280;59577;52.122;5.406;2023-07-02T05:34:52;100906.56;;;17.10;76.60
71735;BME280;59577;52.122;5.406;2023-07-02T05:37:19;100904.81;;;18.83;70.25
71735;BME280;59577;52.122;5.406;2023-07-02T05:39:46;100903.31;;;20.56;65.59
71735;BME280;59577;52.122;5.406;2023-07-02T05:42:12;100908.81;;;21.79;59.84
71735;BME280;59577;52.122;5.406;2023-07-02T05:44:39;100907.47;;;22.86;56.15
71735;BME280;59577;52.122;5.406;2023-07-02T05:47:05;100910.94;;;23.88;53.49
71735;BME280;59577;52.122;5.406;2023-07-02T05:49:32;100911.69;;;25.09;51.21
71735;BME280;59577;52.122;5.406;2023-07-02T05:51:59;100913.91;;;26.08;48.39
71735;BME280;59577;52.122;5.406;2023-07-02T05:54:25;100913.06;;;26.30;45.82
71735;BME280;59577;52.122;5.406;2023-07-02T05:56:52;100913.81;;;26.40;45.30
71735;BME280;59577;52.122;5.406;2023-07-02T05:59:19;100913.91;;;26.86;45.35
71735;BME280;59577;52.122;5.406;2023-07-02T06:01:45;100913.97;;;27.56;43.87
71735;BME280;59577;52.122;5.406;2023-07-02T06:04:12;100912.28;;;27.41;42.65
71735;BME280;59577;52.122;5.406;2023-07-02T06:06:39;100913.53;;;27.91;41.78
71735;BME280;59577;52.122;5.406;2023-07-02T06:09:05;100913.56;;;28.40;40.83
71735;BME280;59577;52.122;5.406;2023-07-02T06:11:32;100916.69;;;28.32;39.75
71735;BME280;59577;52.122;5.406;2023-07-02T06:13:59;100920.28;;;28.72;39.39
71735;BME280;59577;52.122;5.406;2023-07-02T06:16:25;100925.75;;;29.05;38.52
71735;BME280;59577;52.122;5.406;2023-07-02T06:18:52;100914.50;;;29.15;38.08
71735;BME280;59577;52.122;5.406;2023-07-02T06:21:18;100921.75;;;28.82;38.22
71735;BME280;59577;52.122;5.406;2023-07-02T06:23:46;100925.28;;;29.07;36.98
71735;BME280;59577;52.122;5.406;2023-07-02T06:26:12;100940.88;;;27.32;39.74
71735;BME280;59577;52.122;5.406;2023-07-02T06:28:39;100938.75;;;25.81;42.87
71735;BME280;59577;52.122;5.406;2023-07-02T06:31:06;100935.00;;;25.43;43.52
71735;BME280;59577;52.122;5.406;2023-07-02T06:33:33;100938.16;;;25.32;46.18
71735;BME280;59577;52.122;5.406;2023-07-02T06:35:59;100929.91;;;24.63;46.60
71735;BME280;59577;52.122;5.406;2023-07-02T06:38:26;100934.66;;;23.59;49.13
71735;BME280;59577;52.122;5.406;2023-07-02T06:40:52;100935.97;;;22.34;51.16
71735;BME280;59577;52.122;5.406;2023-07-02T06:43:19;100941.03;;;21.46;53.29
71735;BME280;59577;52.122;5.406;2023-07-02T06:45:45;100936.66;;;20.85;53.22
71735;BME280;59577;52.122;5.406;2023-07-02T06:48:12;100950.28;;;20.41;55.93
71735;BME280;59577;52.122;5.406;2023-07-02T06:50:45;100962.38;;;21.18;54.91
71735;BME280;59577;52.122;5.406;2023-07-02T06:53:13;100955.53;;;23.18;51.90
71735;BME280;59577;52.122;5.406;2023-07-02T06:55:40;100960.22;;;24.66;47.17
71735;BME280;59577;52.122;5.406;2023-07-02T06:58:08;100964.63;;;23.19;49.86
71735;BME280;59577;52.122;5.406;2023-07-02T07:00:35;100965.38;;;24.03;48.73
71735;BME280;59577;52.122;5.406;2023-07-02T07:03:03;100974.28;;;23.11;48.79
71735;BME280;59577;52.122;5.406;2023-07-02T07:05:30;100972.59;;;23.30;47.87
71735;BME280;59577;52.122;5.406;2023-07-02T07:07:59;100981.16;;;24.29;47.44
71735;BME280;59577;52.122;5.406;2023-07-02T07:10:27;100974.38;;;25.92;44.13
71735;BME280;59577;52.122;5.406;2023-07-02T07:12:54;100977.59;;;26.62;41.47
71735;BME280;59577;52.122;5.406;2023-07-02T07:15:20;100991.19;;;27.06;39.89
71735;BME280;59577;52.122;5.406;2023-07-02T07:17:47;100984.84;;;26.87;39.20
71735;BME280;59577;52.122;5.406;2023-07-02T07:20:14;100986.88;;;26.77;39.68
71735;BME280;59577;52.122;5.406;2023-07-02T07:22:41;100987.81;;;27.02;37.27
71735;BME280;59577;52.122;5.406;2023-07-02T07:25:08;100999.25;;;26.36;39.73
71735;BME280;59577;52.122;5.406;2023-07-02T07:27:34;100993.53;;;25.45;43.95
71735;BME280;59577;52.122;5.406;2023-07-02T07:30:02;101001.72;;;26.02;40.57
71735;BME280;59577;52.122;5.406;2023-07-02T07:32:28;100995.91;;;25.56;41.78
71735;BME280;59577;52.122;5.406;2023-07-02T07:34:55;101011.72;;;24.64;42.32
71735;BME280;59577;52.122;5.406;2023-07-02T07:37:22;101009.06;;;23.66;45.75
71735;BME280;59577;52.122;5.406;2023-07-02T07:39:49;101007.47;;;24.85;44.41
71735;BME280;59577;52.122;5.406;2023-07-02T07:42:15;101009.41;;;25.76;43.23
71735;BME280;59577;52.122;5.406;2023-07-02T07:44:45;101005.88;;;25.98;42.20
71735;BME280;59577;52.122;5.406;2023-07-02T07:47:12;100999.31;;;25.82;43.04
71735;BME280;59577;52.122;5.406;2023-07-02T07:49:39;101010.50;;;26.41;39.39
71735;BME280;59577;52.122;5.406;2023-07-02T07:52:05;101013.16;;;26.04;44.09
71735;BME280;59577;52.122;5.406;2023-07-02T07:54:33;101014.38;;;27.03;41.47
71735;BME280;59577;52.122;5.406;2023-07-02T07:57:04;101016.53;;;26.40;41.17
71735;BME280;59577;52.122;5.406;2023-07-02T07:59:31;101013.00;;;25.55;40.75
71735;BME280;59577;52.122;5.406;2023-07-02T08:01:57;101017.91;;;24.55;41.95
71735;BME280;59577;52.122;5.406;2023-07-02T08:04:24;101011.00;;;23.53;44.58
71735;BME280;59577;52.122;5.406;2023-07-02T08:06:51;101022.41;;;23.55;43.64
71735;BME280;59577;52.122;5.406;2023-07-02T08:09:17;101026.56;;;23.76;45.87
71735;BME280;59577;52.122;5.406;2023-07-02T08:11:46;101012.16;;;24.49;41.99
71735;BME280;59577;52.122;5.406;2023-07-02T08:14:12;101008.88;;;25.02;42.79
71735;BME280;59577;52.122;5.406;2023-07-02T08:16:39;101026.53;;;25.30;43.03
71735;BME280;59577;52.122;5.406;2023-07-02T08:19:05;101025.69;;;25.65;41.32
71735;BME280;59577;52.122;5.406;2023-07-02T08:21:32;101017.44;;;24.82;39.00
71735;BME280;59577;52.122;5.406;2023-07-02T08:23:59;101034.25;;;23.69;41.13
71735;BME280;59577;52.122;5.406;2023-07-02T08:26:25;101031.88;;;23.41;45.52
71735;BME280;59577;52.122;5.406;2023-07-02T08:28:52;101029.53;;;23.69;41.19
71735;BME280;59577;52.122;5.406;2023-07-02T08:31:18;101024.53;;;23.64;41.60
71735;BME280;59577;52.122;5.406;2023-07-02T08:33:45;101037.72;;;23.73;43.21
71735;BME280;59577;52.122;5.406;2023-07-02T08:36:12;101056.38;;;23.98;40.85
71735;BME280;59577;52.122;5.406;2023-07-02T08:38:40;101049.00;;;23.20;43.13
71735;BME280;59577;52.122;5.406;2023-07-02T08:41:08;101046.75;;;23.31;44.46
71735;BME280;59577;52.122;5.406;2023-07-02T08:43:35;101041.94;;;22.86;42.69
71735;BME280;59577;52.122;5.406;2023-07-02T08:46:02;101044.44;;;22.64;43.91
71735;BME280;59577;52.122;5.406;2023-07-02T08:48:29;101039.44;;;23.54;44.30
71735;BME280;59577;52.122;5.406;2023-07-02T08:50:57;101044.41;;;23.59;45.10
71735;BME280;59577;52.122;5.406;2023-07-02T08:53:23;101055.97;;;24.25;43.20
71735;BME280;59577;52.122;5.406;2023-07-02T08:55:55;101046.91;;;24.25;39.54
71735;BME280;59577;52.122;5.406;2023-07-02T08:58:22;101057.84;;;23.73;41.21
71735;BME280;59577;52.122;5.406;2023-07-02T09:01:12;101048.69;;;24.57;43.63
71735;BME280;59577;52.122;5.406;2023-07-02T09:03:40;101050.91;;;24.75;40.58
71735;BME280;59577;52.122;5.406;2023-07-02T09:06:08;101057.38;;;24.04;40.38
71735;BME280;59577;52.122;5.406;2023-07-02T09:08:36;101042.66;;;23.65;39.60
71735;BME280;59577;52.122;5.406;2023-07-02T09:11:09;101064.94;;;23.28;41.95
71735;BME280;59577;52.122;5.406;2023-07-02T09:14:02;101070.66;;;22.88;42.15
71735;BME280;59577;52.122;5.406;2023-07-02T09:16:30;101063.44;;;22.42;42.22
71735;BME280;59577;52.122;5.406;2023-07-02T09:19:05;101069.53;;;22.13;44.17
71735;BME280;59577;52.122;5.406;2023-07-02T09:21:45;101069.78;;;22.91;43.97
71735;BME280;59577;52.122;5.406;2023-07-02T09:24:15;101060.31;;;23.55;42.59
71735;BME280;59577;52.122;5.406;2023-07-02T09:26:46;101060.44;;;24.61;41.15
71735;BME280;59577;52.122;5.406;2023-07-02T09:29:18;101056.09;;;24.21;36.96
71735;BME280;59577;52.122;5.406;2023-07-02T09:31:46;101053.16;;;23.87;38.95
71735;BME280;59577;52.122;5.406;2023-07-02T09:34:37;101056.31;;;24.53;40.01
71735;BME280;59577;52.122;5.406;2023-07-02T09:37:05;101048.94;;;25.10;37.85
71735;BME280;59577;52.122;5.406;2023-07-02T09:39:33;101052.53;;;25.33;35.75
71735;BME280;59577;52.122;5.406;2023-07-02T09:42:02;101058.16;;;24.94;36.29
71735;BME280;59577;52.122;5.406;2023-07-02T09:44:30;101047.53;;;24.93;37.17
71735;BME280;59577;52.122;5.406;2023-07-02T09:47:08;101058.28;;;24.39;37.10
71735;BME280;59577;52.122;5.406;2023-07-02T09:49:37;101055.19;;;24.12;36.51
71735;BME280;59577;52.122;5.406;2023-07-02T09:52:06;101048.78;;;24.53;37.27
71735;BME280;59577;52.122;5.406;2023-07-02T09:54:33;101049.59;;;24.54;38.27
71735;BME280;59577;52.122;5.406;2023-07-02T09:57:01;101047.28;;;25.00;37.29
71735;BME280;59577;52.122;5.406;2023-07-02T09:59:29;101061.72;;;24.95;34.23
71735;BME280;59577;52.122;5.406;2023-07-02T10:01:56;101056.31;;;24.40;34.01
71735;BME280;59577;52.122;5.406;2023-07-02T10:04:23;101058.63;;;24.16;35.28
71735;BME280;59577;52.122;5.406;2023-07-02T10:06:55;101059.50;;;24.00;36.84
71735;BME280;59577;52.122;5.406;2023-07-02T10:09:45;101073.66;;;25.05;39.05
71735;BME280;59577;52.122;5.406;2023-07-02T10:12:18;101061.09;;;25.26;35.37
71735;BME280;59577;52.122;5.406;2023-07-02T10:14:47;101064.53;;;24.69;34.75
71735;BME280;59577;52.122;5.406;2023-07-02T10:17:28;101075.66;;;24.14;35.39
71735;BME280;59577;52.122;5.406;2023-07-02T10:19:59;101068.03;;;23.31;34.64
71735;BME280;59577;52.122;5.406;2023-07-02T10:22:27;101074.28;;;23.18;35.41
71735;BME280;59577;52.122;5.406;2023-07-02T10:24:55;101089.38;;;23.30;35.57
71735;BME280;59577;52.122;5.406;2023-07-02T10:27:36;101086.19;;;23.32;34.87
71735;BME280;59577;52.122;5.406;2023-07-02T10:30:04;101077.88;;;23.48;34.85
71735;BME280;59577;52.122;5.406;2023-07-02T10:32:33;101082.50;;;23.97;34.65
71735;BME280;59577;52.122;5.406;2023-07-02T10:37:41;101084.97;;;24.46;33.58
71735;BME280;59577;52.122;5.406;2023-07-02T10:40:08;101090.19;;;24.44;33.03
71735;BME280;59577;52.122;5.406;2023-07-02T10:42:49;101084.28;;;23.74;34.23
71735;BME280;59577;52.122;5.406;2023-07-02T10:45:17;101082.78;;;23.57;35.17
71735;BME280;59577;52.122;5.406;2023-07-02T10:47:44;101084.78;;;23.86;34.86
71735;BME280;59577;52.122;5.406;2023-07-02T10:50:21;101081.69;;;24.77;35.55
71735;BME280;59577;52.122;5.406;2023-07-02T10:52:48;101085.09;;;24.94;34.58
71735;BME280;59577;52.122;5.406;2023-07-02T10:55:21;101079.59;;;24.68;36.26
71735;BME280;59577;52.122;5.406;2023-07-02T10:57:49;101080.09;;;25.49;35.35
71735;BME280;59577;52.122;5.406;2023-07-02T11:00:19;101087.41;;;25.56;36.74
71735;BME280;59577;52.122;5.406;2023-07-02T11:02:46;101091.56;;;25.39;38.67
71735;BME280;59577;52.122;5.406;2023-07-02T11:05:13;101098.72;;;25.01;35.10
71735;BME280;59577;52.122;5.406;2023-07-02T11:07:41;101099.97;;;24.62;35.97
71735;BME280;59577;52.122;5.406;2023-07-02T11:10:09;101093.84;;;24.92;36.19
71735;BME280;59577;52.122;5.406;2023-07-02T11:12:36;101097.19;;;24.87;35.77
71735;BME280;59577;52.122;5.406;2023-07-02T11:15:08;101105.81;;;24.64;36.64
71735;BME280;59577;52.122;5.406;2023-07-02T11:17:35;101092.72;;;24.38;36.18
71735;BME280;59577;52.122;5.406;2023-07-02T11:20:01;101099.41;;;24.67;35.10
71735;BME280;59577;52.122;5.406;2023-07-02T11:22:35;101101.25;;;24.44;36.12
71735;BME280;59577;52.122;5.406;2023-07-02T11:25:15;101097.41;;;24.67;37.06
71735;BME280;59577;52.122;5.406;2023-07-02T11:27:43;101102.03;;;24.45;37.32
71735;BME280;59577;52.122;5.406;2023-07-02T11:30:10;101100.50;;;24.44;37.43
71735;BME280;59577;52.122;5.406;2023-07-02T11:35:15;101103.00;;;25.15;35.03
71735;BME280;59577;52.122;5.406;2023-07-02T11:37:42;101102.19;;;25.40;35.54
71735;BME280;59577;52.122;5.406;2023-07-02T11:40:10;101106.72;;;25.69;33.36
71735;BME280;59577;52.122;5.406;2023-07-02T11:42:36;101106.03;;;25.78;33.08
71735;BME280;59577;52.122;5.406;2023-07-02T11:45:04;101094.47;;;25.79;34.81
71735;BME280;59577;52.122;5.406;2023-07-02T11:47:31;101099.19;;;25.92;34.33
71735;BME280;59577;52.122;5.406;2023-07-02T11:49:58;101093.94;;;26.06;31.69
71735;BME280;59577;52.122;5.406;2023-07-02T11:52:41;101104.56;;;26.08;31.89
71735;BME280;59577;52.122;5.406;2023-07-02T11:55:08;101093.50;;;26.49;32.17
71735;BME280;59577;52.122;5.406;2023-07-02T11:57:35;101101.84;;;26.49;32.59
71735;BME280;59577;52.122;5.406;2023-07-02T12:00:01;101110.53;;;25.84;32.71
71735;BME280;59577;52.122;5.406;2023-07-02T12:02:28;101109.75;;;25.62;33.60
71735;BME280;59577;52.122;5.406;2023-07-02T12:04:55;101104.19;;;25.40;33.27
71735;BME280;59577;52.122;5.406;2023-07-02T12:07:21;101108.66;;;25.11;32.04
71735;BME280;59577;52.122;5.406;2023-07-02T12:09:48;101111.44;;;24.47;33.87
71735;BME280;59577;52.122;5.406;2023-07-02T12:12:15;101115.31;;;24.37;34.47
71735;BME280;59577;52.122;5.406;2023-07-02T12:14:42;101115.38;;;24.20;34.29
71735;BME280;59577;52.122;5.406;2023-07-02T12:17:10;101112.88;;;24.39;35.26
71735;BME280;59577;52.122;5.406;2023-07-02T12:19:39;101121.38;;;24.45;34.22
71735;BME280;59577;52.122;5.406;2023-07-02T12:22:06;101129.59;;;24.48;34.45
71735;BME280;59577;52.122;5.406;2023-07-02T12:24:33;101110.25;;;24.74;33.37
71735;BME280;59577;52.122;5.406;2023-07-02T12:27:00;101119.78;;;24.73;33.45
71735;BME280;59577;52.122;5.406;2023-07-02T12:29:26;101119.53;;;24.67;34.60
71735;BME280;59577;52.122;5.406;2023-07-02T12:31:53;101125.72;;;24.46;33.56
71735;BME280;59577;52.122;5.406;2023-07-02T12:34:20;101131.91;;;24.37;35.83
71735;BME280;59577;52.122;5.406;2023-07-02T12:36:46;101126.03;;;24.35;34.66
71735;BME280;59577;52.122;5.406;2023-07-02T12:39:13;101122.06;;;25.13;35.60
71735;BME280;59577;52.122;5.406;2023-07-02T12:41:43;101107.59;;;25.79;34.98
71735;BME280;59577;52.122;5.406;2023-07-02T12:44:09;101114.81;;;26.20;32.62
71735;BME280;59577;52.122;5.406;2023-07-02T12:46:36;101115.31;;;25.84;31.81
71735;BME280;59577;52.122;5.406;2023-07-02T12:49:03;101119.34;;;26.05;31.66
71735;BME280;59577;52.122;5.406;2023-07-02T12:51:29;101127.56;;;25.74;31.84
71735;BME280;59577;52.122;5.406;2023-07-02T12:53:56;101125.34;;;25.46;31.27
71735;BME280;59577;52.122;5.406;2023-07-02T12:56:23;101131.63;;;25.60;33.62
71735;BME280;59577;52.122;5.406;2023-07-02T12:58:49;101128.22;;;25.43;33.93
71735;BME280;59577;52.122;5.406;2023-07-02T13:01:17;101132.13;;;25.32;31.48